sensor_id;sensor_type;location;lat;lon;timestamp;pressure;altitude;pressure_sealevel;temperature;humidity
50859;BME280;36826;47.514;19.056;2023-05-31T00:01:36;100315.75;;;27.40;34.91
50859;BME280;36826;47.514;19.056;2023-05-31T00:04:02;100323.84;;;27.76;34.64
50859;BME280;36826;47.514;19.056;2023-05-31T00:06:27;100317.41;;;27.41;34.99
50859;BME280;36826;47.514;19.056;2023-05-31T00:08:53;100312.81;;;27.30;34.98
50859;BME280;36826;47.514;19.056;2023-05-31T00:11:18;100317.31;;;27.36;34.97
50859;BME280;36826;47.514;19.056;2023-05-31T00:13:44;100315.53;;;27.30;35.48
50859;BME280;36826;47.514;19.056;2023-05-31T00:16:10;100317.34;;;27.65;34.92
50859;BME280;36826;47.514;19.056;2023-05-31T00:18:36;100325.75;;;28.04;34.09
50859;BME280;36826;47.514;19.056;2023-05-31T00:21:02;100327.16;;;27.61;34.95
50859;BME280;36826;47.514;19.056;2023-05-31T00:23:27;100322.66;;;27.02;35.39
50859;BME280;36826;47.514;19.056;2023-05-31T00:25:53;100324.41;;;27.90;34.14
50859;BME280;36826;47.514;19.056;2023-05-31T00:28:20;100331.66;;;26.85;35.79
50859;BME280;36826;47.514;19.056;2023-05-31T00:30:45;100323.66;;;27.36;34.81
50859;BME280;36826;47.514;19.056;2023-05-31T00:33:11;100327.72;;;27.92;34.28
50859;BME280;36826;47.514;19.056;2023-05-31T00:35:38;100326.50;;;27.53;34.35
50859;BME280;36826;47.514;19.056;2023-05-31T00:38:05;100326.25;;;28.01;33.79
50859;BME280;36826;47.514;19.056;2023-05-31T00:40:37;100323.84;;;27.76;33.95
50859;BME280;36826;47.514;19.056;2023-05-31T00:43:03;100328.38;;;27.53;34.75
50859;BME280;36826;47.514;19.056;2023-05-31T00:45:35;100336.44;;;27.31;34.93
50859;BME280;36826;47.514;19.056;2023-05-31T00:48:00;100326.97;;;27.50;34.49
50859;BME280;36826;47.514;19.056;2023-05-31T00:50:26;100324.09;;;27.74;34.32
50859;BME280;36826;47.514;19.056;2023-05-31T00:52:54;100324.94;;;26.81;35.62
50859;BME280;36826;47.514;19.056;2023-05-31T00:55:21;100329.66;;;27.21;34.98
50859;BME280;36826;47.514;19.056;2023-05-31T00:57:47;100332.59;;;27.44;34.81
50859;BME280;36826;47.514;19.056;2023-05-31T01:00:13;100325.28;;;27.78;33.76
50859;BME280;36826;47.514;19.056;2023-05-31T01:02:40;100323.94;;;27.23;34.83
50859;BME280;36826;47.514;19.056;2023-05-31T01:05:09;100328.69;;;27.68;34.18
50859;BME280;36826;47.514;19.056;2023-05-31T01:07:35;100319.09;;;27.42;34.43
50859;BME280;36826;47.514;19.056;2023-05-31T01:10:02;100322.88;;;28.11;33.27
50859;BME280;36826;47.514;19.056;2023-05-31T01:15:21;100325.91;;;27.97;33.12
50859;BME280;36826;47.514;19.056;2023-05-31T01:17:56;100322.59;;;27.66;33.57
50859;BME280;36826;47.514;19.056;2023-05-31T01:20:28;100321.16;;;27.93;33.29
50859;BME280;36826;47.514;19.056;2023-05-31T01:25:57;100316.72;;;27.92;32.93
50859;BME280;36826;47.514;19.056;2023-05-31T01:28:34;100320.69;;;28.13;33.04
50859;BME280;36826;47.514;19.056;2023-05-31T01:31:02;100322.72;;;27.89;33.19
50859;BME280;36826;47.514;19.056;2023-05-31T01:33:29;100321.16;;;27.64;33.22
50859;BME280;36826;47.514;19.056;2023-05-31T01:35:56;100327.41;;;27.88;32.94
50859;BME280;36826;47.514;19.056;2023-05-31T01:38:22;100321.78;;;27.66;33.18
50859;BME280;36826;47.514;19.056;2023-05-31T01:40:48;100324.75;;;28.10;32.62
50859;BME280;36826;47.514;19.056;2023-05-31T01:43:14;100325.41;;;27.54;33.25
50859;BME280;36826;47.514;19.056;2023-05-31T01:45:40;100324.97;;;27.34;33.55
50859;BME280;36826;47.514;19.056;2023-05-31T01:48:08;100322.13;;;27.86;32.63
50859;BME280;36826;47.514;19.056;2023-05-31T01:50:35;100321.47;;;27.50;33.27
50859;BME280;36826;47.514;19.056;2023-05-31T01:53:02;100326.34;;;27.60;33.21
50859;BME280;36826;47.514;19.056;2023-05-31T01:55:28;100322.22;;;27.34;33.07
50859;BME280;36826;47.514;19.056;2023-05-31T01:57:54;100320.75;;;27.43;33.18
50859;BME280;36826;47.514;19.056;2023-05-31T02:00:21;100324.56;;;26.42;35.07
50859;BME280;36826;47.514;19.056;2023-05-31T02:02:47;100327.91;;;27.15;33.57
50859;BME280;36826;47.514;19.056;2023-05-31T02:05:14;100321.84;;;26.65;34.09
50859;BME280;36826;47.514;19.056;2023-05-31T02:07:41;100325.28;;;27.08;33.65
50859;BME280;36826;47.514;19.056;2023-05-31T02:10:08;100321.13;;;26.58;34.12
50859;BME280;36826;47.514;19.056;2023-05-31T02:12:34;100319.59;;;27.27;33.35
50859;BME280;36826;47.514;19.056;2023-05-31T02:14:59;100336.31;;;26.85;34.01
50859;BME280;36826;47.514;19.056;2023-05-31T02:17:25;100330.78;;;26.97;33.86
50859;BME280;36826;47.514;19.056;2023-05-31T02:19:52;100334.88;;;26.94;33.74
50859;BME280;36826;47.514;19.056;2023-05-31T02:22:18;100336.84;;;26.27;34.92
50859;BME280;36826;47.514;19.056;2023-05-31T02:24:44;100335.34;;;26.67;33.99
50859;BME280;36826;47.514;19.056;2023-05-31T02:27:14;100322.66;;;26.66;33.93
50859;BME280;36826;47.514;19.056;2023-05-31T02:29:40;100334.72;;;26.53;34.44
50859;BME280;36826;47.514;19.056;2023-05-31T02:32:05;100329.63;;;26.80;33.89
50859;BME280;36826;47.514;19.056;2023-05-31T02:34:33;100330.31;;;27.00;33.53
50859;BME280;36826;47.514;19.056;2023-05-31T02:37:00;100338.97;;;27.20;33.50
50859;BME280;36826;47.514;19.056;2023-05-31T02:39:25;100337.84;;;26.45;34.58
50859;BME280;36826;47.514;19.056;2023-05-31T02:41:51;100343.09;;;26.34;34.74
50859;BME280;36826;47.514;19.056;2023-05-31T02:44:17;100337.25;;;26.78;33.93
50859;BME280;36826;47.514;19.056;2023-05-31T02:46:42;100342.97;;;27.01;33.44
50859;BME280;36826;47.514;19.056;2023-05-31T02:49:08;100343.25;;;26.87;33.81
50859;BME280;36826;47.514;19.056;2023-05-31T02:51:34;100343.41;;;27.21;33.30
50859;BME280;36826;47.514;19.056;2023-05-31T02:54:00;100338.44;;;26.59;34.24
50859;BME280;36826;47.514;19.056;2023-05-31T02:56:25;100344.03;;;26.64;33.79
50859;BME280;36826;47.514;19.056;2023-05-31T02:58:51;100336.16;;;26.44;34.14
50859;BME280;36826;47.514;19.056;2023-05-31T03:01:17;100337.22;;;26.43;34.28
50859;BME280;36826;47.514;19.056;2023-05-31T03:03:43;100342.75;;;25.70;35.18
50859;BME280;36826;47.514;19.056;2023-05-31T03:06:08;100346.78;;;26.40;34.22
50859;BME280;36826;47.514;19.056;2023-05-31T03:08:34;100342.72;;;26.31;34.44
50859;BME280;36826;47.514;19.056;2023-05-31T03:10:59;100345.81;;;27.06;33.40
50859;BME280;36826;47.514;19.056;2023-05-31T03:13:25;100337.47;;;26.41;33.91
50859;BME280;36826;47.514;19.056;2023-05-31T03:15:52;100342.72;;;27.14;33.14
50859;BME280;36826;47.514;19.056;2023-05-31T03:18:17;100349.28;;;27.13;32.85
50859;BME280;36826;47.514;19.056;2023-05-31T03:20:49;100346.91;;;27.86;31.79
50859;BME280;36826;47.514;19.056;2023-05-31T03:23:16;100347.00;;;27.63;31.72
50859;BME280;36826;47.514;19.056;2023-05-31T03:25:43;100349.97;;;28.36;31.35
50859;BME280;36826;47.514;19.056;2023-05-31T03:28:08;100353.91;;;27.77;31.92
50859;BME280;36826;47.514;19.056;2023-05-31T03:30:34;100346.53;;;28.80;30.24
50859;BME280;36826;47.514;19.056;2023-05-31T03:33:00;100358.63;;;28.62;30.38
50859;BME280;36826;47.514;19.056;2023-05-31T03:35:25;100346.81;;;29.40;29.19
50859;BME280;36826;47.514;19.056;2023-05-31T03:37:53;100347.06;;;28.77;30.00
50859;BME280;36826;47.514;19.056;2023-05-31T03:40:18;100356.50;;;28.13;30.92
50859;BME280;36826;47.514;19.056;2023-05-31T03:42:44;100361.66;;;28.43;30.31
50859;BME280;36826;47.514;19.056;2023-05-31T03:45:10;100363.25;;;27.23;32.51
50859;BME280;36826;47.514;19.056;2023-05-31T03:47:37;100364.53;;;27.33;32.18
50859;BME280;36826;47.514;19.056;2023-05-31T03:50:06;100364.59;;;27.62;31.86
50859;BME280;36826;47.514;19.056;2023-05-31T03:52:33;100363.72;;;27.73;32.04
50859;BME280;36826;47.514;19.056;2023-05-31T03:55:00;100364.97;;;27.82;31.28
50859;BME280;36826;47.514;19.056;2023-05-31T03:57:26;100364.59;;;27.09;33.00
50859;BME280;36826;47.514;19.056;2023-05-31T03:59:52;100366.66;;;27.54;32.36
50859;BME280;36826;47.514;19.056;2023-05-31T04:02:18;100370.50;;;27.53;31.90
50859;BME280;36826;47.514;19.056;2023-05-31T04:04:44;100366.09;;;29.62;29.78
50859;BME280;36826;47.514;19.056;2023-05-31T04:07:10;100370.66;;;28.90;29.89
50859;BME280;36826;47.514;19.056;2023-05-31T04:09:36;100370.34;;;28.69;30.24
50859;BME280;36826;47.514;19.056;2023-05-31T04:12:02;100373.84;;;28.13;31.06
50859;BME280;36826;47.514;19.056;2023-05-31T04:14:28;100379.94;;;27.86;31.60
50859;BME280;36826;47.514;19.056;2023-05-31T04:16:53;100382.25;;;28.24;31.16
50859;BME280;36826;47.514;19.056;2023-05-31T04:19:19;100380.78;;;28.67;30.62
50859;BME280;36826;47.514;19.056;2023-05-31T04:21:45;100385.66;;;28.77;30.29
50859;BME280;36826;47.514;19.056;2023-05-31T04:24:11;100388.47;;;28.02;31.50
50859;BME280;36826;47.514;19.056;2023-05-31T04:26:36;100385.38;;;27.69;31.81
50859;BME280;36826;47.514;19.056;2023-05-31T04:29:03;100398.56;;;28.59;30.72
50859;BME280;36826;47.514;19.056;2023-05-31T04:31:28;100389.38;;;28.54;30.73
50859;BME280;36826;47.514;19.056;2023-05-31T04:33:57;100398.22;;;27.64;31.46
50859;BME280;36826;47.514;19.056;2023-05-31T04:36:25;100388.81;;;29.08;29.70
50859;BME280;36826;47.514;19.056;2023-05-31T04:38:53;100389.53;;;28.64;30.56
50859;BME280;36826;47.514;19.056;2023-05-31T04:41:23;100380.63;;;30.67;27.83
50859;BME280;36826;47.514;19.056;2023-05-31T04:43:54;100386.41;;;28.72;29.41
50859;BME280;36826;47.514;19.056;2023-05-31T04:46:22;100395.59;;;29.84;29.15
50859;BME280;36826;47.514;19.056;2023-05-31T04:48:48;100393.94;;;29.38;29.24
50859;BME280;36826;47.514;19.056;2023-05-31T04:51:16;100386.41;;;28.72;30.44
50859;BME280;36826;47.514;19.056;2023-05-31T04:53:41;100395.78;;;29.99;28.57
50859;BME280;36826;47.514;19.056;2023-05-31T04:56:07;100405.66;;;32.46;26.10
50859;BME280;36826;47.514;19.056;2023-05-31T04:58:34;100408.41;;;32.67;25.02
50859;BME280;36826;47.514;19.056;2023-05-31T05:01:00;100413.50;;;31.65;26.35
50859;BME280;36826;47.514;19.056;2023-05-31T05:03:26;100401.97;;;29.62;29.17
50859;BME280;36826;47.514;19.056;2023-05-31T05:05:52;100404.25;;;32.07;25.83
50859;BME280;36826;47.514;19.056;2023-05-31T05:08:18;100406.25;;;31.43;26.71
50859;BME280;36826;47.514;19.056;2023-05-31T05:10:43;100417.00;;;31.34;26.73
50859;BME280;36826;47.514;19.056;2023-05-31T05:13:09;100414.19;;;32.13;25.75
50859;BME280;36826;47.514;19.056;2023-05-31T05:15:35;100401.16;;;33.07;24.49
50859;BME280;36826;47.514;19.056;2023-05-31T05:18:01;100403.69;;;32.78;25.15
50859;BME280;36826;47.514;19.056;2023-05-31T05:20:27;100404.28;;;30.90;26.77
50859;BME280;36826;47.514;19.056;2023-05-31T05:22:53;100407.50;;;31.83;25.61
50859;BME280;36826;47.514;19.056;2023-05-31T05:25:19;100403.16;;;32.60;24.61
50859;BME280;36826;47.514;19.056;2023-05-31T05:27:48;100409.50;;;31.30;26.69
50859;BME280;36826;47.514;19.056;2023-05-31T05:30:15;100406.28;;;31.53;26.06
50859;BME280;36826;47.514;19.056;2023-05-31T05:32:41;100402.38;;;31.49;26.17
50859;BME280;36826;47.514;19.056;2023-05-31T05:35:07;100404.19;;;31.87;26.14
50859;BME280;36826;47.514;19.056;2023-05-31T05:37:33;100415.75;;;28.67;30.04
50859;BME280;36826;47.514;19.056;2023-05-31T05:40:00;100409.31;;;30.61;27.79
50859;BME280;36826;47.514;19.056;2023-05-31T05:42:26;100423.50;;;28.19;30.87
50859;BME280;36826;47.514;19.056;2023-05-31T05:44:52;100421.94;;;28.91;30.42
50859;BME280;36826;47.514;19.056;2023-05-31T05:47:18;100414.28;;;29.54;29.14
50859;BME280;36826;47.514;19.056;2023-05-31T05:49:43;100420.47;;;30.71;27.83
50859;BME280;36826;47.514;19.056;2023-05-31T05:52:10;100423.00;;;31.79;26.41
50859;BME280;36826;47.514;19.056;2023-05-31T05:54:36;100414.25;;;30.91;26.78
50859;BME280;36826;47.514;19.056;2023-05-31T05:57:02;100418.81;;;30.43;27.54
50859;BME280;36826;47.514;19.056;2023-05-31T05:59:28;100419.09;;;31.75;26.05
50859;BME280;36826;47.514;19.056;2023-05-31T06:01:54;100427.56;;;32.58;25.42
50859;BME280;36826;47.514;19.056;2023-05-31T06:04:20;100423.66;;;32.90;24.93
50859;BME280;36826;47.514;19.056;2023-05-31T06:06:46;100419.78;;;32.65;25.10
50859;BME280;36826;47.514;19.056;2023-05-31T06:09:11;100418.41;;;32.32;24.89
50859;BME280;36826;47.514;19.056;2023-05-31T06:11:37;100432.31;;;34.20;23.25
50859;BME280;36826;47.514;19.056;2023-05-31T06:14:02;100425.91;;;32.72;24.88
50859;BME280;36826;47.514;19.056;2023-05-31T06:16:28;100429.13;;;33.97;23.81
50859;BME280;36826;47.514;19.056;2023-05-31T06:18:54;100435.56;;;33.87;24.13
50859;BME280;36826;47.514;19.056;2023-05-31T06:21:20;100430.72;;;34.08;23.01
50859;BME280;36826;47.514;19.056;2023-05-31T06:23:45;100435.31;;;32.66;24.89
50859;BME280;36826;47.514;19.056;2023-05-31T06:26:11;100426.94;;;33.13;24.48
50859;BME280;36826;47.514;19.056;2023-05-31T06:28:36;100426.13;;;34.97;22.58
50859;BME280;36826;47.514;19.056;2023-05-31T06:31:02;100431.72;;;36.08;21.38
50859;BME280;36826;47.514;19.056;2023-05-31T06:33:28;100428.38;;;36.78;20.68
50859;BME280;36826;47.514;19.056;2023-05-31T06:35:53;100435.94;;;39.34;18.74
50859;BME280;36826;47.514;19.056;2023-05-31T06:38:19;100439.00;;;37.37;20.30
50859;BME280;36826;47.514;19.056;2023-05-31T06:40:46;100432.13;;;38.21;19.40
50859;BME280;36826;47.514;19.056;2023-05-31T06:43:13;100428.84;;;38.42;18.86
50859;BME280;36826;47.514;19.056;2023-05-31T06:45:38;100431.06;;;39.66;17.66
50859;BME280;36826;47.514;19.056;2023-05-31T06:48:07;100426.59;;;38.30;19.34
50859;BME280;36826;47.514;19.056;2023-05-31T06:50:33;100430.41;;;39.11;18.53
50859;BME280;36826;47.514;19.056;2023-05-31T06:52:59;100436.56;;;40.33;17.47
50859;BME280;36826;47.514;19.056;2023-05-31T06:55:25;100435.84;;;38.54;18.85
50859;BME280;36826;47.514;19.056;2023-05-31T06:57:50;100424.91;;;38.43;18.93
50859;BME280;36826;47.514;19.056;2023-05-31T07:00:17;100429.44;;;39.25;18.55
50859;BME280;36826;47.514;19.056;2023-05-31T07:02:49;100443.53;;;41.69;16.64
50859;BME280;36826;47.514;19.056;2023-05-31T07:05:16;100442.63;;;41.56;17.14
50859;BME280;36826;47.514;19.056;2023-05-31T07:07:41;100439.03;;;40.08;17.59
50859;BME280;36826;47.514;19.056;2023-05-31T07:10:07;100443.88;;;42.53;15.79
50859;BME280;36826;47.514;19.056;2023-05-31T07:12:33;100435.50;;;42.90;15.48
50859;BME280;36826;47.514;19.056;2023-05-31T07:14:59;100436.78;;;43.79;14.64
50859;BME280;36826;47.514;19.056;2023-05-31T07:17:26;100443.56;;;44.32;14.57
50859;BME280;36826;47.514;19.056;2023-05-31T07:19:51;100440.88;;;44.51;14.49
50859;BME280;36826;47.514;19.056;2023-05-31T07:22:17;100441.69;;;41.74;15.79
50859;BME280;36826;47.514;19.056;2023-05-31T07:24:43;100433.28;;;43.58;14.85
50859;BME280;36826;47.514;19.056;2023-05-31T07:27:09;100435.31;;;42.74;15.61
50859;BME280;36826;47.514;19.056;2023-05-31T07:29:36;100434.53;;;43.85;14.76
50859;BME280;36826;47.514;19.056;2023-05-31T07:32:01;100442.66;;;41.48;16.95
50859;BME280;36826;47.514;19.056;2023-05-31T07:34:27;100445.53;;;41.90;16.63
50859;BME280;36826;47.514;19.056;2023-05-31T07:36:53;100443.72;;;38.51;16.93
50859;BME280;36826;47.514;19.056;2023-05-31T07:39:21;100440.03;;;40.39;16.96
50859;BME280;36826;47.514;19.056;2023-05-31T07:41:47;100435.84;;;42.42;15.11
50859;BME280;36826;47.514;19.056;2023-05-31T07:44:13;100443.50;;;41.01;15.51
50859;BME280;36826;47.514;19.056;2023-05-31T07:46:44;100443.03;;;40.33;15.00
50859;BME280;36826;47.514;19.056;2023-05-31T07:49:10;100437.19;;;39.77;16.00
50859;BME280;36826;47.514;19.056;2023-05-31T07:51:37;100445.31;;;39.87;15.85
50859;BME280;36826;47.514;19.056;2023-05-31T07:54:03;100435.91;;;38.03;17.31
50859;BME280;36826;47.514;19.056;2023-05-31T07:56:29;100434.75;;;40.19;16.23
50859;BME280;36826;47.514;19.056;2023-05-31T07:58:54;100436.94;;;37.56;17.82
50859;BME280;36826;47.514;19.056;2023-05-31T08:01:20;100431.75;;;37.36;18.00
50859;BME280;36826;47.514;19.056;2023-05-31T08:03:46;100450.81;;;36.73;18.22
50859;BME280;36826;47.514;19.056;2023-05-31T08:06:11;100446.19;;;38.53;17.38
50859;BME280;36826;47.514;19.056;2023-05-31T08:08:37;100451.97;;;35.03;20.04
50859;BME280;36826;47.514;19.056;2023-05-31T08:11:02;100444.59;;;37.37;18.01
50859;BME280;36826;47.514;19.056;2023-05-31T08:13:28;100448.78;;;38.72;17.28
50859;BME280;36826;47.514;19.056;2023-05-31T08:15:55;100440.88;;;39.37;17.18
50859;BME280;36826;47.514;19.056;2023-05-31T08:18:21;100447.59;;;38.05;17.81
50859;BME280;36826;47.514;19.056;2023-05-31T08:20:47;100447.50;;;39.01;16.90
50859;BME280;36826;47.514;19.056;2023-05-31T08:23:19;100436.78;;;37.75;17.65
50859;BME280;36826;47.514;19.056;2023-05-31T08:25:46;100446.81;;;38.04;17.20
50859;BME280;36826;47.514;19.056;2023-05-31T08:28:12;100432.94;;;39.88;16.37
50859;BME280;36826;47.514;19.056;2023-05-31T08:30:37;100439.72;;;40.31;15.87
50859;BME280;36826;47.514;19.056;2023-05-31T08:33:03;100443.03;;;38.46;16.96
50859;BME280;36826;47.514;19.056;2023-05-31T08:35:29;100440.66;;;39.83;16.37
50859;BME280;36826;47.514;19.056;2023-05-31T08:37:55;100449.72;;;40.76;15.87
50859;BME280;36826;47.514;19.056;2023-05-31T08:40:21;100432.53;;;42.07;14.88
50859;BME280;36826;47.514;19.056;2023-05-31T08:42:51;100444.69;;;43.49;13.56
50859;BME280;36826;47.514;19.056;2023-05-31T08:45:19;100437.38;;;43.73;13.47
50859;BME280;36826;47.514;19.056;2023-05-31T08:50:37;100438.25;;;41.08;15.56
50859;BME280;36826;47.514;19.056;2023-05-31T08:53:05;100441.16;;;41.20;15.30
50859;BME280;36826;47.514;19.056;2023-05-31T08:55:33;100447.63;;;41.42;14.62
50859;BME280;36826;47.514;19.056;2023-05-31T08:58:00;100435.44;;;42.65;14.72
50859;BME280;36826;47.514;19.056;2023-05-31T09:00:27;100428.25;;;43.14;13.69
50859;BME280;36826;47.514;19.056;2023-05-31T09:02:53;100426.13;;;42.98;14.03
50859;BME280;36826;47.514;19.056;2023-05-31T09:05:20;100432.00;;;44.81;12.67
50859;BME280;36826;47.514;19.056;2023-05-31T09:07:45;100434.31;;;45.24;12.48
50859;BME280;36826;47.514;19.056;2023-05-31T09:10:12;100431.22;;;44.08;13.20
50859;BME280;36826;47.514;19.056;2023-05-31T09:12:40;100426.31;;;44.49;13.11
50859;BME280;36826;47.514;19.056;2023-05-31T09:15:06;100413.53;;;41.52;15.25
50859;BME280;36826;47.514;19.056;2023-05-31T09:17:32;100425.47;;;40.72;15.64
50859;BME280;36826;47.514;19.056;2023-05-31T09:19:59;100433.00;;;41.28;15.75
50859;BME280;36826;47.514;19.056;2023-05-31T09:22:25;100435.31;;;37.41;18.41
50859;BME280;36826;47.514;19.056;2023-05-31T09:24:58;100433.22;;;37.47;18.50
50859;BME280;36826;47.514;19.056;2023-05-31T09:27:26;100422.75;;;41.32;15.97
50859;BME280;36826;47.514;19.056;2023-05-31T09:29:53;100421.25;;;41.64;15.20
50859;BME280;36826;47.514;19.056;2023-05-31T09:32:19;100419.06;;;40.10;16.36
50859;BME280;36826;47.514;19.056;2023-05-31T09:34:45;100427.44;;;41.49;15.58
50859;BME280;36826;47.514;19.056;2023-05-31T09:37:24;100427.88;;;43.40;14.04
50859;BME280;36826;47.514;19.056;2023-05-31T09:39:56;100426.97;;;42.53;15.06
50859;BME280;36826;47.514;19.056;2023-05-31T09:42:25;100409.13;;;43.85;13.53
50859;BME280;36826;47.514;19.056;2023-05-31T09:44:52;100408.50;;;45.25;13.00
50859;BME280;36826;47.514;19.056;2023-05-31T09:47:24;100422.00;;;40.57;16.34
50859;BME280;36826;47.514;19.056;2023-05-31T09:49:53;100401.72;;;42.90;14.94
50859;BME280;36826;47.514;19.056;2023-05-31T09:52:25;100398.28;;;37.86;18.66
50859;BME280;36826;47.514;19.056;2023-05-31T09:54:51;100410.97;;;41.38;16.08
50859;BME280;36826;47.514;19.056;2023-05-31T09:57:34;100404.59;;;42.69;15.02
50859;BME280;36826;47.514;19.056;2023-05-31T10:00:12;100411.25;;;45.05;13.49
50859;BME280;36826;47.514;19.056;2023-05-31T10:02:43;100409.94;;;40.65;15.99
50859;BME280;36826;47.514;19.056;2023-05-31T10:05:10;100407.06;;;40.18;16.86
50859;BME280;36826;47.514;19.056;2023-05-31T10:07:38;100397.59;;;44.03;13.92
50859;BME280;36826;47.514;19.056;2023-05-31T10:10:07;100412.63;;;44.96;13.32
50859;BME280;36826;47.514;19.056;2023-05-31T10:12:42;100416.28;;;42.92;14.35
50859;BME280;36826;47.514;19.056;2023-05-31T10:15:15;100407.88;;;44.84;13.42
50859;BME280;36826;47.514;19.056;2023-05-31T10:17:45;100397.75;;;46.95;11.84
50859;BME280;36826;47.514;19.056;2023-05-31T10:20:16;100386.25;;;46.61;12.17
50859;BME280;36826;47.514;19.056;2023-05-31T10:22:43;100389.19;;;43.78;13.84
50859;BME280;36826;47.514;19.056;2023-05-31T10:25:28;100397.53;;;38.63;17.92
50859;BME280;36826;47.514;19.056;2023-05-31T10:27:56;100398.84;;;37.60;18.25
50859;BME280;36826;47.514;19.056;2023-05-31T10:30:24;100391.50;;;39.01;18.01
50859;BME280;36826;47.514;19.056;2023-05-31T10:33:06;100394.28;;;39.68;17.12
50859;BME280;36826;47.514;19.056;2023-05-31T10:35:33;100387.41;;;39.92;17.24
50859;BME280;36826;47.514;19.056;2023-05-31T10:38:00;100384.53;;;40.53;16.82
50859;BME280;36826;47.514;19.056;2023-05-31T10:40:49;100390.31;;;40.48;16.59
50859;BME280;36826;47.514;19.056;2023-05-31T10:46:06;100389.56;;;34.10;22.79
50859;BME280;36826;47.514;19.056;2023-05-31T10:51:22;100393.94;;;36.35;20.39
50859;BME280;36826;47.514;19.056;2023-05-31T10:54:02;100383.31;;;36.04;20.31
50859;BME280;36826;47.514;19.056;2023-05-31T10:56:27;100382.84;;;35.10;21.14
50859;BME280;36826;47.514;19.056;2023-05-31T10:58:53;100384.03;;;35.91;20.13
50859;BME280;36826;47.514;19.056;2023-05-31T11:01:19;100368.06;;;35.34;20.93
50859;BME280;36826;47.514;19.056;2023-05-31T11:03:50;100369.19;;;34.84;21.44
50859;BME280;36826;47.514;19.056;2023-05-31T11:06:22;100374.47;;;35.78;20.19
50859;BME280;36826;47.514;19.056;2023-05-31T11:09:08;100378.75;;;35.70;20.33
50859;BME280;36826;47.514;19.056;2023-05-31T11:14:06;100376.28;;;37.71;18.59
50859;BME280;36826;47.514;19.056;2023-05-31T11:16:33;100370.06;;;38.65;18.42
50859;BME280;36826;47.514;19.056;2023-05-31T11:19:06;100362.63;;;39.50;17.42
50859;BME280;36826;47.514;19.056;2023-05-31T11:21:49;100364.13;;;38.66;18.48
50859;BME280;36826;47.514;19.056;2023-05-31T11:24:35;100348.22;;;37.76;18.82
50859;BME280;36826;47.514;19.056;2023-05-31T11:27:02;100359.09;;;36.52;20.38
50859;BME280;36826;47.514;19.056;2023-05-31T11:32:21;100345.44;;;37.62;19.38
50859;BME280;36826;47.514;19.056;2023-05-31T11:34:55;100350.78;;;35.37;20.98
50859;BME280;36826;47.514;19.056;2023-05-31T11:37:30;100352.84;;;35.89;20.17
50859;BME280;36826;47.514;19.056;2023-05-31T11:40:02;100347.22;;;36.27;20.44
50859;BME280;36826;47.514;19.056;2023-05-31T11:42:32;100350.84;;;36.47;19.72
50859;BME280;36826;47.514;19.056;2023-05-31T11:45:03;100336.00;;;37.07;19.21
50859;BME280;36826;47.514;19.056;2023-05-31T11:50:31;100341.88;;;33.98;21.79
50859;BME280;36826;47.514;19.056;2023-05-31T11:53:02;100341.59;;;35.17;20.91
50859;BME280;36826;47.514;19.056;2023-05-31T11:55:32;100339.81;;;35.02;21.40
50859;BME280;36826;47.514;19.056;2023-05-31T11:57:58;100339.47;;;35.28;20.95
50859;BME280;36826;47.514;19.056;2023-05-31T12:00:24;100328.31;;;36.24;19.89
50859;BME280;36826;47.514;19.056;2023-05-31T12:02:52;100332.91;;;36.95;18.91
50859;BME280;36826;47.514;19.056;2023-05-31T12:05:18;100327.59;;;37.35;18.96
50859;BME280;36826;47.514;19.056;2023-05-31T12:07:45;100330.81;;;36.59;19.40
50859;BME280;36826;47.514;19.056;2023-05-31T12:10:11;100329.22;;;36.05;19.81
50859;BME280;36826;47.514;19.056;2023-05-31T12:12:38;100327.19;;;35.10;20.33
50859;BME280;36826;47.514;19.056;2023-05-31T12:15:04;100319.44;;;34.53;21.19
50859;BME280;36826;47.514;19.056;2023-05-31T12:17:31;100331.03;;;35.58;20.13
50859;BME280;36826;47.514;19.056;2023-05-31T12:19:57;100329.34;;;35.57;19.73
50859;BME280;36826;47.514;19.056;2023-05-31T12:22:24;100329.28;;;35.18;20.42
50859;BME280;36826;47.514;19.056;2023-05-31T12:24:50;100335.31;;;35.88;19.87
50859;BME280;36826;47.514;19.056;2023-05-31T12:27:20;100330.44;;;34.05;21.52
50859;BME280;36826;47.514;19.056;2023-05-31T12:29:46;100327.19;;;35.10;20.38
50859;BME280;36826;47.514;19.056;2023-05-31T12:32:12;100322.06;;;36.93;18.99
50859;BME280;36826;47.514;19.056;2023-05-31T12:34:38;100316.97;;;37.23;18.47
50859;BME280;36826;47.514;19.056;2023-05-31T12:37:08;100301.31;;;37.36;18.39
50859;BME280;36826;47.514;19.056;2023-05-31T12:39:34;100305.72;;;37.14;18.58
50859;BME280;36826;47.514;19.056;2023-05-31T12:42:00;100298.56;;;36.80;18.35
50859;BME280;36826;47.514;19.056;2023-05-31T12:44:27;100298.75;;;35.76;19.08
50859;BME280;36826;47.514;19.056;2023-05-31T12:47:02;100299.09;;;36.68;18.66
50859;BME280;36826;47.514;19.056;2023-05-31T12:49:33;100302.47;;;37.49;17.57
50859;BME280;36826;47.514;19.056;2023-05-31T12:52:09;100302.31;;;37.18;18.00
50859;BME280;36826;47.514;19.056;2023-05-31T12:54:36;100299.91;;;36.69;18.17
50859;BME280;36826;47.514;19.056;2023-05-31T12:57:04;100291.59;;;38.39;16.92
50859;BME280;36826;47.514;19.056;2023-05-31T12:59:32;100297.13;;;38.61;16.63
50859;BME280;36826;47.514;19.056;2023-05-31T13:01:58;100282.84;;;38.09;16.59
50859;BME280;36826;47.514;19.056;2023-05-31T13:04:24;100284.56;;;37.36;17.20